首页
METAR-TAF:

METAR-TAF

机场 :

溫莎國際機場

温莎, 安大略省, 加拿大

纬度: 42-16N, 经度: 082-58W, 海拔: 190米

当前天气观测

该预报发布于1小时和3分钟前的09:00 UTC
风速15节,风向西转西北,有时为24节阵风
温度 -7°C
湿度 73%
气压 1011 hPa
能見度: 14.5公里
天空无云

METAR: CYQG 270900Z AUTO 30015G24KT 9SM CLR M07/M11 A2984 RMK SLP115

时间: 05:03 (10:03 UTC)

预报

该预报发布于4小时和25分钟前的05:38 UTC
预报有效从27日的 06点(UTC)到 28日的 06点(UTC)
风速17节,风向西北,有时为27节阵风
能見度: 9.7公里
少量云层高于2000英尺
阴天层高于4000英尺
小雪
短暂存在
从 27日的 06点(UTC)到 27日的 08点(UTC)
阴天层高于2000英尺
小雪, 高吹雪
从 27日的 0800点(UTC)
风速15节,风向西转西北
能見度: 10公里
多云层高于2500英尺
短暂存在
从 27日的 08点(UTC)到 27日的 17点(UTC)
能見度: 6.4公里
阴天层高于1500英尺
小雪, 高吹雪
成为
从 27日的 13点(UTC)到 27日的 15点(UTC)
风速15节,风向西转西北,有时为25节阵风
从 27日的 1700点(UTC)
风速15节,风向西,有时为25节阵风
能見度: 9.7公里
多云层高于4000英尺
小阵雪, 高吹雪
从 28日的 0200点(UTC)
风速15节,风向西
能見度: 10公里
多云层高于4000英尺

TAF: CYQG 270538Z 2706/2806 32017G27KT 6SM -SN FEW020 OVC040 TEMPO 2706/2708 21/2SM -SN BLSN OVC020 FM270800 29015KT P6SM BKN025 TEMPO 2708/2717 4SM -SN BLSN OVC015 BECMG 2713/2715 29015G25KT FM271700 27015G25KT 6SM -SHSN BLSN BKN040 FM280200 28015KT P6SM BKN040 RMK FCST BASED ON AUTO OBS. NXT FCST BY 271200Z

超过4000个机场的气象观测和天气预报(METAR&TAF报告)。

可查询的气象台以黄色和红色小点在地图上表示。

将鼠标移到小点上方,可查看气象台名称。

然后点击查看天气观测和预报。

如需切换地图:点击带黑十字的绿色按钮放大地图;点击带横线的绿色按钮缩小地图;或者点击绿色箭头查看邻近地区的地图。


METAR-TAF: